createdAt,value
2023-03-11T00:00:53.770Z,1003.36
2023-03-11T00:01:53.815Z,1003.43
2023-03-11T00:02:53.789Z,1003.44
2023-03-11T00:03:53.771Z,1003.44
2023-03-11T00:04:53.736Z,1003.54
2023-03-11T00:05:54.676Z,1003.53
2023-03-11T00:06:53.712Z,1003.59
2023-03-11T00:07:53.755Z,1003.56
2023-03-11T00:08:53.696Z,1003.58
2023-03-11T00:09:53.683Z,1003.61
2023-03-11T00:10:53.669Z,1003.59
2023-03-11T00:11:53.625Z,1003.65
2023-03-11T00:12:53.642Z,1003.65
2023-03-11T00:13:53.612Z,1003.63
2023-03-11T00:14:53.610Z,1003.66
2023-03-11T00:15:53.612Z,1003.67
2023-03-11T00:16:53.667Z,1003.61
2023-03-11T00:17:53.616Z,1003.55
2023-03-11T00:18:53.621Z,1003.69
2023-03-11T00:19:53.563Z,1003.60
2023-03-11T00:20:53.541Z,1003.63
2023-03-11T00:21:53.508Z,1003.65
2023-03-11T00:22:53.516Z,1003.69
2023-03-11T00:23:53.478Z,1003.60
2023-03-11T00:24:53.490Z,1003.70
2023-03-11T00:25:53.470Z,1003.67
2023-03-11T00:26:53.435Z,1003.73
2023-03-11T00:27:53.467Z,1003.69
2023-03-11T00:28:53.433Z,1003.69
2023-03-11T00:29:53.466Z,1003.75
2023-03-11T00:30:53.526Z,1003.76
2023-03-11T00:31:53.384Z,1003.80
2023-03-11T00:32:53.410Z,1003.81
2023-03-11T00:33:53.368Z,1003.77
2023-03-11T00:34:53.330Z,1003.86
2023-03-11T00:35:53.413Z,1003.85
2023-03-11T00:36:53.304Z,1003.83
2023-03-11T00:37:53.333Z,1003.95
2023-03-11T00:38:53.355Z,1003.89
2023-03-11T00:39:53.285Z,1003.93
2023-03-11T00:40:53.268Z,1003.97
2023-03-11T00:41:53.252Z,1003.95
2023-03-11T00:42:53.255Z,1004.08
2023-03-11T00:43:53.277Z,1003.99
2023-03-11T00:44:53.203Z,1003.98
2023-03-11T00:45:53.269Z,1003.94
2023-03-11T00:46:53.167Z,1003.93
2023-03-11T00:47:53.196Z,1004.00
2023-03-11T00:48:53.200Z,1004.00
2023-03-11T00:49:53.182Z,1004.05
2023-03-11T00:50:53.141Z,1004.03
2023-03-11T00:51:53.115Z,1004.04
2023-03-11T00:52:53.111Z,1004.05
2023-03-11T00:53:53.094Z,1004.10
2023-03-11T00:54:53.104Z,1004.10
2023-03-11T00:55:53.105Z,1004.01
2023-03-11T00:56:53.060Z,1004.13
2023-03-11T00:57:53.073Z,1004.14
2023-03-11T00:58:53.061Z,1004.16
2023-03-11T00:59:53.037Z,1004.12
2023-03-11T01:00:53.037Z,1004.12
2023-03-11T01:01:52.986Z,1004.11
2023-03-11T01:02:53.037Z,1004.09
2023-03-11T01:03:53.041Z,1004.20
2023-03-11T01:04:52.972Z,1004.12
2023-03-11T01:05:52.940Z,1004.18
2023-03-11T01:06:52.909Z,1004.22
2023-03-11T01:07:52.938Z,1004.19
2023-03-11T01:08:52.978Z,1004.23
2023-03-11T01:09:52.889Z,1004.27
2023-03-11T01:10:52.883Z,1004.31
2023-03-11T01:11:52.863Z,1004.18
2023-03-11T01:12:52.858Z,1004.27
2023-03-11T01:13:52.893Z,1004.28
2023-03-11T01:14:52.849Z,1004.21
2023-03-11T01:15:52.836Z,1004.28
2023-03-11T01:16:52.779Z,1004.28
2023-03-11T01:17:52.803Z,1004.22
2023-03-11T01:18:52.799Z,1004.25
2023-03-11T01:19:52.748Z,1004.28
2023-03-11T01:20:52.754Z,1004.22
2023-03-11T01:21:52.728Z,1004.31
2023-03-11T01:22:52.700Z,1004.26
2023-03-11T01:23:52.765Z,1004.25
2023-03-11T01:24:52.690Z,1004.29
2023-03-11T01:25:52.681Z,1004.27
2023-03-11T01:26:52.657Z,1004.25
2023-03-11T01:27:52.672Z,1004.23
2023-03-11T01:28:52.673Z,1004.32
2023-03-11T01:29:52.628Z,1004.31
2023-03-11T01:30:52.661Z,1004.34
2023-03-11T01:31:52.621Z,1004.35
2023-03-11T01:32:52.672Z,1004.34
2023-03-11T01:33:52.610Z,1004.35
2023-03-11T01:34:52.584Z,1004.34
2023-03-11T01:35:52.599Z,1004.44
2023-03-11T01:36:52.514Z,1004.43
2023-03-11T01:37:52.550Z,1004.48
2023-03-11T01:38:52.514Z,1004.50
2023-03-11T01:39:52.528Z,1004.48
2023-03-11T01:40:52.497Z,1004.54
2023-03-11T01:41:52.501Z,1004.46
2023-03-11T01:42:52.468Z,1004.53
2023-03-11T01:43:52.483Z,1004.50
2023-03-11T01:44:52.447Z,1004.56
2023-03-11T01:45:52.412Z,1004.50
2023-03-11T01:46:52.517Z,1004.60
2023-03-11T01:47:52.407Z,1004.55
2023-03-11T01:48:52.373Z,1004.55
2023-03-11T01:49:52.384Z,1004.48
2023-03-11T01:50:52.360Z,1004.55
2023-03-11T01:51:52.352Z,1004.47
2023-03-11T01:52:52.326Z,1004.54
2023-03-11T01:53:52.299Z,1004.54
2023-03-11T01:54:52.343Z,1004.52
2023-03-11T01:55:52.279Z,1004.54
2023-03-11T01:56:52.246Z,1004.53
2023-03-11T01:57:52.318Z,1004.55
2023-03-11T01:58:52.297Z,1004.47
2023-03-11T01:59:52.258Z,1004.53
2023-03-11T02:00:52.240Z,1004.57
2023-03-11T02:01:52.266Z,1004.56
2023-03-11T02:02:52.267Z,1004.54
2023-03-11T02:03:52.207Z,1004.57
2023-03-11T02:04:52.182Z,1004.57
2023-03-11T02:05:52.154Z,1004.60
2023-03-11T02:06:54.078Z,1004.59
2023-03-11T02:07:52.159Z,1004.55
2023-03-11T02:08:52.137Z,1004.56
2023-03-11T02:09:52.138Z,1004.61
2023-03-11T02:10:52.100Z,1004.63
2023-03-11T02:11:52.112Z,1004.67
2023-03-11T02:12:52.100Z,1004.66
2023-03-11T02:13:52.083Z,1004.64
2023-03-11T02:14:52.062Z,1004.69
2023-03-11T02:15:52.159Z,1004.60
2023-03-11T02:16:52.082Z,1004.56
2023-03-11T02:17:52.024Z,1004.62
2023-03-11T02:18:52.026Z,1004.64
2023-03-11T02:19:52.031Z,1004.59
2023-03-11T02:20:51.982Z,1004.61
2023-03-11T02:21:52.001Z,1004.66
2023-03-11T02:22:51.966Z,1004.61
2023-03-11T02:23:51.933Z,1004.63
2023-03-11T02:24:51.905Z,1004.69
2023-03-11T02:25:51.973Z,1004.59
2023-03-11T02:26:51.919Z,1004.58
2023-03-11T02:27:51.904Z,1004.62
2023-03-11T02:28:51.855Z,1004.58
2023-03-11T02:29:51.846Z,1004.62
2023-03-11T02:30:51.866Z,1004.56
2023-03-11T02:31:52.035Z,1004.54
2023-03-11T02:32:51.845Z,1004.60
2023-03-11T02:33:51.808Z,1004.64
2023-03-11T02:34:51.786Z,1004.59
2023-03-11T02:35:51.907Z,1004.61
2023-03-11T02:36:51.771Z,1004.57
2023-03-11T02:37:51.796Z,1004.55
2023-03-11T02:38:51.750Z,1004.57
2023-03-11T02:39:51.727Z,1004.62
2023-03-11T02:40:51.751Z,1004.65
2023-03-11T02:41:51.685Z,1004.65
2023-03-11T02:42:51.686Z,1004.71
2023-03-11T02:43:51.665Z,1004.61
2023-03-11T02:44:51.689Z,1004.79
2023-03-11T02:45:51.690Z,1004.80
2023-03-11T02:46:51.699Z,1004.80
2023-03-11T02:47:51.610Z,1004.78
2023-03-11T02:48:51.632Z,1004.79
2023-03-11T02:49:51.596Z,1004.81
2023-03-11T02:50:51.567Z,1004.78
2023-03-11T02:51:51.568Z,1004.82
2023-03-11T02:52:51.583Z,1004.84
2023-03-11T02:53:51.540Z,1004.83
2023-03-11T02:54:51.560Z,1004.82
2023-03-11T02:55:51.520Z,1004.87
2023-03-11T02:56:51.510Z,1004.87
2023-03-11T02:57:51.561Z,1004.85
2023-03-11T02:58:51.485Z,1004.93
2023-03-11T02:59:51.473Z,1004.89
2023-03-11T03:00:51.542Z,1004.94
2023-03-11T03:01:51.423Z,1004.89
2023-03-11T03:02:51.457Z,1004.86
2023-03-11T03:03:51.490Z,1004.88
2023-03-11T03:04:51.396Z,1004.94
2023-03-11T03:05:51.420Z,1004.86
2023-03-11T03:06:51.402Z,1004.84
2023-03-11T03:07:51.418Z,1004.84
2023-03-11T03:08:51.387Z,1004.89
2023-03-11T03:09:51.336Z,1004.90
2023-03-11T03:10:51.318Z,1004.90
2023-03-11T03:11:51.316Z,1004.85
2023-03-11T03:12:51.317Z,1004.87
2023-03-11T03:13:51.284Z,1004.82
2023-03-11T03:14:51.284Z,1004.84
2023-03-11T03:15:51.248Z,1004.84
2023-03-11T03:16:51.399Z,1004.88
2023-03-11T03:17:51.247Z,1004.89
2023-03-11T03:18:51.220Z,1004.79
2023-03-11T03:19:51.188Z,1004.88
2023-03-11T03:20:51.231Z,1004.91
2023-03-11T03:21:51.206Z,1004.99
2023-03-11T03:22:51.195Z,1004.98
2023-03-11T03:23:51.178Z,1004.97
2023-03-11T03:24:51.162Z,1004.97
2023-03-11T03:25:51.122Z,1005.04
2023-03-11T03:26:51.174Z,1005.01
2023-03-11T03:27:51.151Z,1004.96
2023-03-11T03:28:51.114Z,1004.99
2023-03-11T03:29:51.083Z,1005.01
2023-03-11T03:30:51.086Z,1005.11
2023-03-11T03:31:51.136Z,1005.06
2023-03-11T03:32:51.111Z,1005.10
2023-03-11T03:33:51.033Z,1005.04
2023-03-11T03:34:51.034Z,1005.12
2023-03-11T03:35:50.997Z,1005.09
2023-03-11T03:36:51.046Z,1005.10
2023-03-11T03:37:50.954Z,1005.10
2023-03-11T03:38:50.980Z,1005.08
2023-03-11T03:39:50.957Z,1005.12
2023-03-11T03:40:50.938Z,1005.14
2023-03-11T03:41:50.917Z,1005.14
2023-03-11T03:42:50.904Z,1005.10
2023-03-11T03:43:50.880Z,1005.13
2023-03-11T03:44:50.907Z,1005.22
2023-03-11T03:45:50.940Z,1005.20
2023-03-11T03:46:50.904Z,1005.23
2023-03-11T03:47:50.858Z,1005.20
2023-03-11T03:48:50.833Z,1005.25
2023-03-11T03:49:50.803Z,1005.27
2023-03-11T03:50:50.793Z,1005.33
2023-03-11T03:51:50.809Z,1005.28
2023-03-11T03:52:50.806Z,1005.31
2023-03-11T03:53:50.780Z,1005.35
2023-03-11T03:54:50.744Z,1005.37
2023-03-11T03:55:50.732Z,1005.30
2023-03-11T03:56:50.736Z,1005.37
2023-03-11T03:57:50.764Z,1005.33
2023-03-11T03:58:50.733Z,1005.39
2023-03-11T03:59:50.701Z,1005.38
2023-03-11T04:00:50.675Z,1005.46
2023-03-11T04:01:50.722Z,1005.39
2023-03-11T04:02:50.690Z,1005.41
2023-03-11T04:03:50.648Z,1005.45
2023-03-11T04:04:50.632Z,1005.43
2023-03-11T04:05:50.600Z,1005.47
2023-03-11T04:06:50.634Z,1005.44
2023-03-11T04:07:50.628Z,1005.43
2023-03-11T04:08:50.572Z,1005.47
2023-03-11T04:09:50.544Z,1005.52
2023-03-11T04:10:50.573Z,1005.47
2023-03-11T04:11:50.547Z,1005.47
2023-03-11T04:12:50.545Z,1005.40
2023-03-11T04:13:50.495Z,1005.48
2023-03-11T04:14:50.540Z,1005.48
2023-03-11T04:15:50.507Z,1005.60
2023-03-11T04:16:50.553Z,1005.48
2023-03-11T04:17:50.479Z,1005.58
2023-03-11T04:18:50.468Z,1005.62
2023-03-11T04:19:50.437Z,1005.65
2023-03-11T04:20:50.442Z,1005.65
2023-03-11T04:21:50.421Z,1005.70
2023-03-11T04:22:50.427Z,1005.67
2023-03-11T04:23:50.363Z,1005.62
2023-03-11T04:24:50.386Z,1005.70
2023-03-11T04:25:50.372Z,1005.71
2023-03-11T04:26:50.374Z,1005.69
2023-03-11T04:27:50.378Z,1005.70
2023-03-11T04:28:50.307Z,1005.67
2023-03-11T04:29:50.308Z,1005.65
2023-03-11T04:30:50.320Z,1005.70
2023-03-11T04:31:50.257Z,1005.73
2023-03-11T04:32:50.324Z,1005.77
2023-03-11T04:33:50.270Z,1005.73
2023-03-11T04:34:50.222Z,1005.77
2023-03-11T04:35:50.238Z,1005.75
2023-03-11T04:36:50.215Z,1005.78
2023-03-11T04:37:50.210Z,1005.83
2023-03-11T04:38:50.179Z,1005.79
2023-03-11T04:39:50.151Z,1005.82
2023-03-11T04:40:50.176Z,1005.86
2023-03-11T04:41:50.125Z,1005.83
2023-03-11T04:42:50.170Z,1005.83
2023-03-11T04:43:50.124Z,1005.83
2023-03-11T04:44:50.134Z,1005.87
2023-03-11T04:45:50.152Z,1005.84
2023-03-11T04:46:50.105Z,1005.84
2023-03-11T04:47:50.038Z,1005.83
2023-03-11T04:48:50.114Z,1005.94
2023-03-11T04:49:50.028Z,1005.94
2023-03-11T04:50:50.012Z,1005.96
2023-03-11T04:51:50.025Z,1006.06
2023-03-11T04:52:50.040Z,1006.04
2023-03-11T04:53:49.966Z,1006.02
2023-03-11T04:54:49.972Z,1005.98
2023-03-11T04:55:49.960Z,1006.03
2023-03-11T04:56:49.982Z,1006.02
2023-03-11T04:57:49.969Z,1006.00
2023-03-11T04:58:49.938Z,1006.03
2023-03-11T04:59:49.908Z,1006.00
2023-03-11T05:00:49.894Z,1006.05
2023-03-11T05:01:49.944Z,1006.02
2023-03-11T05:02:49.903Z,1006.02
2023-03-11T05:03:49.864Z,1006.03
2023-03-11T05:04:49.956Z,1006.06
2023-03-11T05:05:49.809Z,1006.07
2023-03-11T05:06:49.819Z,1006.08
2023-03-11T05:07:49.824Z,1006.08
2023-03-11T05:08:49.776Z,1006.16
2023-03-11T05:09:49.776Z,1006.06
2023-03-11T05:10:49.753Z,1006.06
2023-03-11T05:11:49.772Z,1006.11
2023-03-11T05:12:49.782Z,1006.05
2023-03-11T05:13:49.751Z,1006.13
2023-03-11T05:14:49.706Z,1006.13
2023-03-11T05:15:49.753Z,1006.14
2023-03-11T05:16:49.696Z,1006.07
2023-03-11T05:17:49.691Z,1006.14
2023-03-11T05:18:49.714Z,1006.15
2023-03-11T05:19:49.637Z,1006.19
2023-03-11T05:20:49.652Z,1006.15
2023-03-11T05:21:49.605Z,1006.17
2023-03-11T05:22:49.642Z,1006.09
2023-03-11T05:23:49.588Z,1006.08
2023-03-11T05:24:49.591Z,1006.13
2023-03-11T05:25:49.547Z,1006.16
2023-03-11T05:26:49.580Z,1006.16
2023-03-11T05:27:49.549Z,1006.19
2023-03-11T05:28:49.565Z,1006.26
2023-03-11T05:29:49.529Z,1006.17
2023-03-11T05:30:49.538Z,1006.22
2023-03-11T05:31:49.509Z,1006.25
2023-03-11T05:32:49.519Z,1006.25
2023-03-11T05:33:49.501Z,1006.25
2023-03-11T05:34:49.448Z,1006.24
2023-03-11T05:35:49.614Z,1006.23
2023-03-11T05:36:49.436Z,1006.30
2023-03-11T05:37:49.402Z,1006.30
2023-03-11T05:38:49.464Z,1006.35
2023-03-11T05:39:49.378Z,1006.33
2023-03-11T05:40:49.378Z,1006.32
2023-03-11T05:41:49.401Z,1006.33
2023-03-11T05:42:49.394Z,1006.33
2023-03-11T05:43:49.373Z,1006.33
2023-03-11T05:44:49.344Z,1006.31
2023-03-11T05:45:49.323Z,1006.25
2023-03-11T05:46:49.367Z,1006.31
2023-03-11T05:47:49.275Z,1006.26
2023-03-11T05:48:49.333Z,1006.29
2023-03-11T05:49:49.249Z,1006.30
2023-03-11T05:50:53.326Z,1006.34
2023-03-11T05:51:49.242Z,1006.40
2023-03-11T05:52:49.255Z,1006.44
2023-03-11T05:53:49.231Z,1006.45
2023-03-11T05:54:49.195Z,1006.46
2023-03-11T05:55:49.207Z,1006.49
2023-03-11T05:56:49.200Z,1006.54
2023-03-11T05:57:49.142Z,1006.56
2023-03-11T05:58:49.182Z,1006.48
2023-03-11T05:59:49.121Z,1006.47
2023-03-11T06:00:49.138Z,1006.50
2023-03-11T06:01:49.097Z,1006.55
2023-03-11T06:02:49.144Z,1006.44
2023-03-11T06:03:49.199Z,1006.44
2023-03-11T06:04:49.218Z,1006.53
2023-03-11T06:05:49.067Z,1006.48
2023-03-11T06:06:49.090Z,1006.47
2023-03-11T06:07:49.067Z,1006.46
2023-03-11T06:08:49.059Z,1006.53
2023-03-11T06:09:48.979Z,1006.48
2023-03-11T06:10:49.151Z,1006.53
2023-03-11T06:11:48.956Z,1006.51
2023-03-11T06:12:48.957Z,1006.46
2023-03-11T06:13:48.954Z,1006.55
2023-03-11T06:14:48.942Z,1006.51
2023-03-11T06:15:48.950Z,1006.65
2023-03-11T06:16:48.917Z,1006.56
2023-03-11T06:17:48.888Z,1006.54
2023-03-11T06:18:48.930Z,1006.52
2023-03-11T06:19:48.894Z,1006.59
2023-03-11T06:20:48.863Z,1006.58
2023-03-11T06:21:48.858Z,1006.64
2023-03-11T06:22:48.836Z,1006.66
2023-03-11T06:23:48.862Z,1006.75
2023-03-11T06:24:48.831Z,1006.76
2023-03-11T06:25:48.801Z,1006.76
2023-03-11T06:26:48.782Z,1006.72
2023-03-11T06:27:48.764Z,1006.73
2023-03-11T06:28:48.817Z,1006.74
2023-03-11T06:29:48.814Z,1006.81
2023-03-11T06:30:48.758Z,1006.78
2023-03-11T06:31:48.767Z,1006.81
2023-03-11T06:32:48.720Z,1006.81
2023-03-11T06:33:48.720Z,1006.81
2023-03-11T06:34:48.706Z,1006.77
2023-03-11T06:35:48.676Z,1006.81
2023-03-11T06:36:48.677Z,1006.73
2023-03-11T06:37:48.655Z,1006.78
2023-03-11T06:38:48.668Z,1006.81
2023-03-11T06:39:48.628Z,1006.80
2023-03-11T06:40:48.599Z,1006.84
2023-03-11T06:41:48.603Z,1006.88
2023-03-11T06:42:48.604Z,1006.88
2023-03-11T06:43:48.584Z,1006.87
2023-03-11T06:44:48.550Z,1006.92
2023-03-11T06:45:48.602Z,1006.89
2023-03-11T06:46:48.517Z,1006.93
2023-03-11T06:47:48.534Z,1006.90
2023-03-11T06:48:48.566Z,1006.95
2023-03-11T06:49:48.484Z,1006.90
2023-03-11T06:50:48.566Z,1006.93
2023-03-11T06:51:49.390Z,1007.03
2023-03-11T06:52:48.482Z,1006.96
2023-03-11T06:53:48.472Z,1006.97
2023-03-11T06:54:48.425Z,1006.95
2023-03-11T06:55:48.399Z,1006.93
2023-03-11T06:56:48.435Z,1006.96
2023-03-11T06:57:48.377Z,1007.05
2023-03-11T06:58:48.460Z,1007.16
2023-03-11T06:59:48.392Z,1007.21
2023-03-11T07:00:48.360Z,1007.19
2023-03-11T07:01:48.392Z,1007.15
2023-03-11T07:02:48.330Z,1007.23
2023-03-11T07:03:48.354Z,1007.26
2023-03-11T07:04:48.299Z,1007.22
2023-03-11T07:05:48.282Z,1007.30
2023-03-11T07:06:48.290Z,1007.27
2023-03-11T07:07:48.269Z,1007.31
2023-03-11T07:08:48.280Z,1007.26
2023-03-11T07:09:48.223Z,1007.31
2023-03-11T07:10:48.206Z,1007.40
2023-03-11T07:11:48.212Z,1007.46
2023-03-11T07:12:48.173Z,1007.38
2023-03-11T07:13:48.238Z,1007.43
2023-03-11T07:14:48.169Z,1007.48
2023-03-11T07:15:48.225Z,1007.50
2023-03-11T07:16:48.180Z,1007.49
2023-03-11T07:17:48.119Z,1007.48
2023-03-11T07:18:48.159Z,1007.43
2023-03-11T07:19:48.135Z,1007.47
2023-03-11T07:20:48.099Z,1007.42
2023-03-11T07:21:48.067Z,1007.44
2023-03-11T07:22:48.074Z,1007.48
2023-03-11T07:23:48.097Z,1007.56
2023-03-11T07:24:48.084Z,1007.51
2023-03-11T07:25:48.058Z,1007.54
2023-03-11T07:26:48.030Z,1007.53
2023-03-11T07:27:48.015Z,1007.61
2023-03-11T07:28:47.986Z,1007.68
2023-03-11T07:29:48.142Z,1007.65
2023-03-11T07:30:47.952Z,1007.64
2023-03-11T07:31:48.078Z,1007.72
2023-03-11T07:32:47.968Z,1007.74
2023-03-11T07:33:47.918Z,1007.78
2023-03-11T07:34:47.964Z,1007.85
2023-03-11T07:35:47.953Z,1007.82
2023-03-11T07:36:47.944Z,1007.93
2023-03-11T07:37:47.899Z,1007.91
2023-03-11T07:38:47.866Z,1007.94
2023-03-11T07:39:47.901Z,1007.94
2023-03-11T07:40:47.862Z,1007.94
2023-03-11T07:41:47.853Z,1007.94
2023-03-11T07:42:47.786Z,1007.94
2023-03-11T07:43:47.797Z,1007.94
2023-03-11T07:44:47.766Z,1007.93
2023-03-11T07:45:47.846Z,1007.94
2023-03-11T07:46:47.808Z,1007.92
2023-03-11T07:47:47.763Z,1007.94
2023-03-11T07:48:47.706Z,1007.94
2023-03-11T07:49:47.778Z,1008.03
2023-03-11T07:50:47.711Z,1008.02
2023-03-11T07:51:47.691Z,1008.07
2023-03-11T07:52:47.692Z,1008.09
2023-03-11T07:53:47.697Z,1008.10
2023-03-11T07:54:47.651Z,1008.10
2023-03-11T07:55:47.633Z,1008.15
2023-03-11T07:56:47.610Z,1008.23
2023-03-11T07:57:47.607Z,1008.24
2023-03-11T07:58:47.590Z,1008.28
2023-03-11T07:59:47.602Z,1008.24
2023-03-11T08:00:47.552Z,1008.26
2023-03-11T08:01:47.608Z,1008.27
2023-03-11T08:02:47.643Z,1008.29
2023-03-11T08:03:48.279Z,1008.25
2023-03-11T08:04:47.526Z,1008.26
2023-03-11T08:05:47.533Z,1008.30
2023-03-11T08:06:47.522Z,1008.24
2023-03-11T08:07:47.477Z,1008.24
2023-03-11T08:08:47.451Z,1008.24
2023-03-11T08:09:47.468Z,1008.20
2023-03-11T08:10:47.420Z,1008.15
2023-03-11T08:11:49.605Z,1008.22
2023-03-11T08:12:47.412Z,1008.26
2023-03-11T08:13:47.418Z,1008.20
2023-03-11T08:14:47.417Z,1008.21
2023-03-11T08:15:47.389Z,1008.28
2023-03-11T08:16:47.353Z,1008.23
2023-03-11T08:17:47.392Z,1008.26
2023-03-11T08:18:47.325Z,1008.29
2023-03-11T08:19:47.374Z,1008.30
2023-03-11T08:20:47.327Z,1008.28
2023-03-11T08:21:47.293Z,1008.23
2023-03-11T08:22:57.598Z,1008.21
2023-03-11T08:23:48.289Z,1008.29
2023-03-11T08:24:47.302Z,1008.28
2023-03-11T08:25:47.276Z,1008.32
2023-03-11T08:26:47.248Z,1008.34
2023-03-11T08:27:47.239Z,1008.33
2023-03-11T08:28:47.212Z,1008.29
2023-03-11T08:29:47.201Z,1008.33
2023-03-11T08:30:47.182Z,1008.31
2023-03-11T08:31:47.172Z,1008.23
2023-03-11T08:32:47.240Z,1008.28
2023-03-11T08:33:47.167Z,1008.26
2023-03-11T08:34:54.311Z,1008.29
2023-03-11T08:35:47.143Z,1008.23
2023-03-11T08:36:47.108Z,1008.27
2023-03-11T08:37:47.088Z,1008.26
2023-03-11T08:38:47.159Z,1008.32
2023-03-11T08:39:47.106Z,1008.30
2023-03-11T08:40:47.079Z,1008.36
2023-03-11T08:41:47.073Z,1008.31
2023-03-11T08:42:47.051Z,1008.30
2023-03-11T08:43:47.021Z,1008.31
2023-03-11T08:44:47.026Z,1008.30
2023-03-11T08:45:46.993Z,1008.34
2023-03-11T08:46:47.095Z,1008.35
2023-03-11T08:47:46.994Z,1008.40
2023-03-11T08:48:46.963Z,1008.31
2023-03-11T08:49:46.960Z,1008.36
2023-03-11T08:50:54.009Z,1008.34
2023-03-11T08:51:47.954Z,1008.36
2023-03-11T08:52:46.879Z,1008.33
2023-03-11T08:53:46.913Z,1008.39
2023-03-11T08:54:46.904Z,1008.36
2023-03-11T08:55:46.858Z,1008.40
2023-03-11T08:56:46.835Z,1008.39
2023-03-11T08:57:46.862Z,1008.48
2023-03-11T08:58:46.805Z,1008.51
2023-03-11T08:59:46.827Z,1008.52
2023-03-11T09:00:46.815Z,1008.49
2023-03-11T09:01:47.065Z,1008.51
2023-03-11T09:02:46.805Z,1008.49
2023-03-11T09:03:46.789Z,1008.49
2023-03-11T09:04:46.757Z,1008.55
2023-03-11T09:05:46.801Z,1008.55
2023-03-11T09:06:46.743Z,1008.57
2023-03-11T09:07:46.724Z,1008.56
2023-03-11T09:08:46.709Z,1008.52
2023-03-11T09:09:46.700Z,1008.58
2023-03-11T09:10:46.753Z,1008.50
2023-03-11T09:11:46.664Z,1008.59
2023-03-11T09:12:46.630Z,1008.56
2023-03-11T09:13:46.620Z,1008.60
2023-03-11T09:14:46.627Z,1008.55
2023-03-11T09:15:46.743Z,1008.54
2023-03-11T09:16:46.569Z,1008.62
2023-03-11T09:17:47.285Z,1008.60
2023-03-11T09:18:46.573Z,1008.53
2023-03-11T09:19:46.556Z,1008.60
2023-03-11T09:20:46.538Z,1008.50
2023-03-11T09:21:46.633Z,1008.50
2023-03-11T09:22:46.506Z,1008.51
2023-03-11T09:23:46.522Z,1008.49
2023-03-11T09:24:46.458Z,1008.53
2023-03-11T09:25:46.518Z,1008.49
2023-03-11T09:26:46.475Z,1008.50
2023-03-11T09:27:46.451Z,1008.42
2023-03-11T09:28:46.435Z,1008.38
2023-03-11T09:29:46.452Z,1008.34
2023-03-11T09:30:46.423Z,1008.31
2023-03-11T09:31:46.385Z,1008.36
2023-03-11T09:32:46.385Z,1008.34
2023-03-11T09:33:46.433Z,1008.32
2023-03-11T09:34:46.338Z,1008.33
2023-03-11T09:35:46.402Z,1008.36
2023-03-11T09:36:46.344Z,1008.38
2023-03-11T09:37:46.343Z,1008.38
2023-03-11T09:38:46.297Z,1008.40
2023-03-11T09:39:46.339Z,1008.34
2023-03-11T09:40:47.140Z,1008.40
2023-03-11T09:41:57.579Z,1008.38
2023-03-11T09:42:47.238Z,1008.38
2023-03-11T09:43:46.260Z,1008.45
2023-03-11T09:44:46.227Z,1008.41
2023-03-11T09:45:46.234Z,1008.41
2023-03-11T09:46:46.292Z,1008.46
2023-03-11T09:47:46.226Z,1008.45
2023-03-11T09:48:46.183Z,1008.46
2023-03-11T09:49:46.160Z,1008.48
2023-03-11T09:50:46.164Z,1008.52
2023-03-11T09:51:46.142Z,1008.57
2023-03-11T09:52:46.134Z,1008.53
2023-03-11T09:53:46.104Z,1008.58
2023-03-11T09:54:46.084Z,1008.60
2023-03-11T09:55:46.082Z,1008.65
2023-03-11T09:56:46.079Z,1008.63
2023-03-11T09:57:46.056Z,1008.62
2023-03-11T09:58:46.061Z,1008.69
2023-03-11T09:59:46.054Z,1008.64
2023-03-11T10:00:46.028Z,1008.71
2023-03-11T10:01:46.035Z,1008.68
2023-03-11T10:02:46.166Z,1008.72
2023-03-11T10:03:46.008Z,1008.67
2023-03-11T10:04:45.953Z,1008.72
2023-03-11T10:05:45.966Z,1008.73
2023-03-11T10:06:45.945Z,1008.72
2023-03-11T10:07:45.928Z,1008.76
2023-03-11T10:08:45.944Z,1008.79
2023-03-11T10:09:45.936Z,1008.76
2023-03-11T10:10:45.907Z,1008.78
2023-03-11T10:11:45.879Z,1008.83
2023-03-11T10:12:45.850Z,1008.78
2023-03-11T10:13:45.934Z,1008.83
2023-03-11T10:14:45.816Z,1008.77
2023-03-11T10:15:45.826Z,1008.77
2023-03-11T10:16:45.860Z,1008.85
2023-03-11T10:17:45.851Z,1008.81
2023-03-11T10:18:45.775Z,1008.82
2023-03-11T10:19:45.767Z,1008.76
2023-03-11T10:20:45.772Z,1008.83
2023-03-11T10:21:45.762Z,1008.80
2023-03-11T10:22:45.717Z,1008.76
2023-03-11T10:23:45.713Z,1008.79
2023-03-11T10:24:45.710Z,1008.79
2023-03-11T10:25:45.683Z,1008.83
2023-03-11T10:26:45.685Z,1008.88
2023-03-11T10:27:45.706Z,1008.84
2023-03-11T10:28:45.672Z,1008.91
2023-03-11T10:29:45.662Z,1008.94
2023-03-11T10:30:45.616Z,1008.98
2023-03-11T10:31:45.667Z,1008.92
2023-03-11T10:32:45.687Z,1008.93
2023-03-11T10:33:47.763Z,1008.94
2023-03-11T10:34:45.599Z,1008.96
2023-03-11T10:35:45.626Z,1009.00
2023-03-11T10:36:45.553Z,1009.03
2023-03-11T10:37:49.712Z,1009.02
2023-03-11T10:38:45.511Z,1009.01
2023-03-11T10:39:45.501Z,1008.96
2023-03-11T10:40:45.521Z,1008.98
2023-03-11T10:41:45.527Z,1008.99
2023-03-11T10:42:45.483Z,1008.98
2023-03-11T10:43:45.487Z,1008.96
2023-03-11T10:44:45.477Z,1009.02
2023-03-11T10:45:45.482Z,1009.04
2023-03-11T10:46:45.464Z,1009.10
2023-03-11T10:47:45.436Z,1009.12
2023-03-11T10:48:45.414Z,1009.09
2023-03-11T10:49:45.381Z,1009.09
2023-03-11T10:50:45.384Z,1009.09
2023-03-11T10:51:45.379Z,1009.06
2023-03-11T10:52:45.331Z,1009.01
2023-03-11T10:53:45.351Z,1009.03
2023-03-11T10:54:45.307Z,1009.05
2023-03-11T10:55:45.345Z,1009.05
2023-03-11T10:56:45.328Z,1009.02
2023-03-11T10:57:45.288Z,1009.04
2023-03-11T10:58:45.287Z,1009.00
2023-03-11T10:59:45.255Z,1008.99
2023-03-11T11:00:45.252Z,1008.91
2023-03-11T11:01:45.246Z,1008.87
2023-03-11T11:02:45.236Z,1008.82
2023-03-11T11:03:45.219Z,1008.78
2023-03-11T11:04:45.180Z,1008.76
2023-03-11T11:05:45.178Z,1008.81
2023-03-11T11:06:45.168Z,1008.89
2023-03-11T11:07:45.147Z,1008.87
2023-03-11T11:08:45.130Z,1008.85
2023-03-11T11:09:45.135Z,1008.94
2023-03-11T11:10:45.127Z,1008.93
2023-03-11T11:11:45.126Z,1008.90
2023-03-11T11:12:45.093Z,1008.88
2023-03-11T11:13:45.098Z,1008.87
2023-03-11T11:14:45.076Z,1008.84
2023-03-11T11:15:45.041Z,1008.79
2023-03-11T11:16:45.174Z,1008.81
2023-03-11T11:17:45.043Z,1008.71
2023-03-11T11:18:45.009Z,1008.76
2023-03-11T11:19:44.996Z,1008.89
2023-03-11T11:20:44.986Z,1008.86
2023-03-11T11:21:44.986Z,1008.89
2023-03-11T11:22:44.966Z,1008.92
2023-03-11T11:23:44.955Z,1008.87
2023-03-11T11:24:44.957Z,1008.90
2023-03-11T11:25:44.918Z,1008.85
2023-03-11T11:26:44.936Z,1008.84
2023-03-11T11:27:44.885Z,1008.85
2023-03-11T11:28:44.888Z,1008.85
2023-03-11T11:29:44.876Z,1008.84
2023-03-11T11:30:44.951Z,1008.84
2023-03-11T11:31:44.861Z,1008.87
2023-03-11T11:32:45.065Z,1008.99
2023-03-11T11:33:44.812Z,1008.94
2023-03-11T11:34:44.852Z,1008.98
2023-03-11T11:35:44.816Z,1008.94
2023-03-11T11:36:44.788Z,1009.01
2023-03-11T11:37:44.832Z,1008.99
2023-03-11T11:38:44.787Z,1009.04
2023-03-11T11:39:44.736Z,1009.05
2023-03-11T11:40:44.758Z,1009.00
2023-03-11T11:41:44.723Z,1009.04
2023-03-11T11:42:44.748Z,1009.01
2023-03-11T11:43:44.692Z,1008.96
2023-03-11T11:44:44.705Z,1009.03
2023-03-11T11:45:44.712Z,1009.06
2023-03-11T11:46:44.676Z,1009.05
2023-03-11T11:47:44.690Z,1009.06
2023-03-11T11:48:44.654Z,1009.09
2023-03-11T11:49:44.633Z,1009.08
2023-03-11T11:50:44.611Z,1009.01
2023-03-11T11:51:44.602Z,1009.03
2023-03-11T11:52:45.245Z,1008.97
2023-03-11T11:53:44.625Z,1008.94
2023-03-11T11:54:44.575Z,1008.99
2023-03-11T11:55:44.568Z,1008.92
2023-03-11T11:56:44.549Z,1008.94
2023-03-11T11:57:44.524Z,1009.00
2023-03-11T11:58:44.574Z,1008.93
2023-03-11T11:59:44.494Z,1008.92
2023-03-11T12:00:44.470Z,1008.92
2023-03-11T12:01:44.471Z,1008.99
2023-03-11T12:02:44.469Z,1008.92
2023-03-11T12:03:44.463Z,1008.90
2023-03-11T12:04:44.415Z,1008.87
2023-03-11T12:05:44.432Z,1008.88